createdAt,value
2018-03-25T00:00:03.346Z,32.85
2018-03-25T00:02:30.866Z,32.38
2018-03-25T00:04:58.752Z,32.00
2018-03-25T00:07:26.254Z,27.15
2018-03-25T00:09:53.752Z,25.62
2018-03-25T00:12:21.651Z,29.17
2018-03-25T00:14:49.143Z,31.25
2018-03-25T00:17:17.419Z,29.50
2018-03-25T00:19:45.768Z,29.30
2018-03-25T00:22:13.271Z,30.33
2018-03-25T00:24:41.177Z,30.35
2018-03-25T00:27:08.681Z,27.42
2018-03-25T00:29:36.622Z,31.60
2018-03-25T00:32:04.175Z,26.50
2018-03-25T00:34:31.700Z,29.60
2018-03-25T00:36:59.207Z,30.75
2018-03-25T00:39:26.711Z,30.80
2018-03-25T00:41:54.622Z,26.05
2018-03-25T00:44:22.127Z,27.10
2018-03-25T00:46:49.627Z,28.17
2018-03-25T00:49:17.146Z,26.25
2018-03-25T00:51:45.062Z,32.35
2018-03-25T00:54:12.550Z,31.58
2018-03-25T00:56:40.039Z,32.47
2018-03-25T00:59:07.554Z,29.17
2018-03-25T01:01:35.039Z,30.27
2018-03-25T01:04:02.944Z,29.48
2018-03-25T01:06:30.446Z,30.45
2018-03-25T01:08:57.936Z,28.67
2018-03-25T01:11:25.433Z,28.83
2018-03-25T01:13:52.930Z,30.12
2018-03-25T01:16:20.825Z,27.42
2018-03-25T01:18:48.343Z,29.60
2018-03-25T01:21:15.834Z,28.45
2018-03-25T01:23:43.337Z,33.40
2018-03-25T01:26:10.840Z,34.42
2018-03-25T01:28:38.355Z,32.60
2018-03-25T01:31:05.898Z,29.50
2018-03-25T01:33:33.392Z,33.22
2018-03-25T01:36:00.900Z,30.98
2018-03-25T01:38:28.407Z,28.85
2018-03-25T01:40:55.895Z,27.25
2018-03-25T01:43:23.386Z,29.67
2018-03-25T01:45:50.912Z,26.10
2018-03-25T01:48:18.668Z,29.08
2018-03-25T01:50:46.155Z,29.50
2018-03-25T01:53:13.655Z,27.73
2018-03-25T01:55:41.155Z,35.67
2018-03-25T01:58:08.665Z,30.70
2018-03-25T02:00:36.163Z,32.00
2018-03-25T02:03:03.661Z,28.50
2018-03-25T02:05:31.174Z,35.58
2018-03-25T02:07:58.662Z,36.45
2018-03-25T02:10:26.158Z,33.15
2018-03-25T02:12:53.656Z,32.97
2018-03-25T02:15:21.147Z,33.13
2018-03-25T02:17:48.646Z,30.17
2018-03-25T02:20:16.541Z,33.97
2018-03-25T02:22:44.041Z,28.73
2018-03-25T02:25:11.571Z,34.08
2018-03-25T02:27:39.058Z,33.25
2018-03-25T02:30:06.565Z,35.95
2018-03-25T02:32:34.081Z,34.40
2018-03-25T02:35:01.992Z,35.45
2018-03-25T02:37:29.516Z,36.65
2018-03-25T02:39:57.399Z,31.48
2018-03-25T02:42:24.891Z,31.50
2018-03-25T02:44:52.404Z,32.15
2018-03-25T02:47:20.302Z,31.02
2018-03-25T02:49:47.802Z,31.83
2018-03-25T02:52:15.319Z,35.10
2018-03-25T02:54:42.812Z,36.75
2018-03-25T02:57:10.368Z,32.38
2018-03-25T02:59:37.999Z,34.58
2018-03-25T03:02:05.549Z,38.13
2018-03-25T03:04:33.111Z,34.28
2018-03-25T03:07:00.594Z,40.12
2018-03-25T03:09:28.167Z,33.40
2018-03-25T03:11:56.118Z,35.38
2018-03-25T03:14:23.616Z,39.05
2018-03-25T03:16:51.519Z,39.13
2018-03-25T03:19:19.193Z,46.58
2018-03-25T03:21:46.691Z,41.15
2018-03-25T03:24:14.266Z,39.30
2018-03-25T03:26:41.857Z,34.85
2018-03-25T03:29:09.360Z,44.72
2018-03-25T03:31:36.851Z,42.72
2018-03-25T03:34:05.244Z,42.17
2018-03-25T03:36:32.843Z,43.00
2018-03-25T03:39:00.421Z,41.90
2018-03-25T03:41:27.932Z,43.63
2018-03-25T03:43:55.440Z,42.08
2018-03-25T03:46:23.371Z,39.92
2018-03-25T03:48:50.865Z,46.35
2018-03-25T03:51:18.759Z,39.50
2018-03-25T03:53:46.255Z,35.97
2018-03-25T03:56:13.748Z,36.65
2018-03-25T03:58:41.833Z,34.83
2018-03-25T04:01:09.361Z,34.65
2018-03-25T04:03:37.317Z,30.05
2018-03-25T04:06:05.331Z,40.33
2018-03-25T04:08:32.833Z,39.17
2018-03-25T04:11:00.422Z,50.78
2018-03-25T04:13:27.927Z,45.45
2018-03-25T04:15:55.527Z,42.65
2018-03-25T04:18:23.060Z,46.58
2018-03-25T04:20:50.766Z,41.75
2018-03-25T04:23:18.710Z,33.75
2018-03-25T04:25:46.278Z,41.42
2018-03-25T04:28:14.189Z,33.58
2018-03-25T04:30:41.759Z,43.58
2018-03-25T04:33:09.314Z,37.65
2018-03-25T04:35:36.870Z,40.45
2018-03-25T04:38:04.435Z,35.92
2018-03-25T04:40:31.994Z,36.80
2018-03-25T04:42:59.525Z,32.92
2018-03-25T04:45:27.023Z,35.45
2018-03-25T04:47:54.721Z,34.33
2018-03-25T04:50:22.314Z,40.05
2018-03-25T04:52:49.890Z,52.17
2018-03-25T04:55:17.609Z,61.50
2018-03-25T04:57:45.629Z,49.92
2018-03-25T05:00:13.174Z,37.20
2018-03-25T05:02:40.665Z,32.30
2018-03-25T05:05:08.213Z,35.72
2018-03-25T05:07:35.787Z,43.40
2018-03-25T05:10:03.353Z,39.47
2018-03-25T05:12:30.887Z,37.67
2018-03-25T05:14:58.370Z,42.90
2018-03-25T05:17:25.878Z,42.20
2018-03-25T05:19:53.471Z,41.03
2018-03-25T05:22:20.983Z,42.97
2018-03-25T05:24:48.486Z,42.28
2018-03-25T05:27:16.014Z,37.95
2018-03-25T05:29:44.343Z,40.50
2018-03-25T05:32:11.878Z,39.55
2018-03-25T05:34:39.400Z,38.92
2018-03-25T05:37:06.915Z,37.63
2018-03-25T05:39:34.436Z,45.33
2018-03-25T05:42:01.936Z,37.42
2018-03-25T05:44:29.838Z,42.95
2018-03-25T05:46:57.345Z,40.78
2018-03-25T05:49:24.835Z,39.33
2018-03-25T05:51:52.718Z,40.80
2018-03-25T05:54:20.218Z,41.63
2018-03-25T05:56:47.724Z,39.95
2018-03-25T05:59:15.248Z,35.50
2018-03-25T06:01:42.751Z,33.55
2018-03-25T06:04:10.245Z,37.38
2018-03-25T06:06:37.744Z,36.55
2018-03-25T06:09:05.627Z,32.40
2018-03-25T06:11:33.128Z,34.85
2018-03-25T06:14:00.636Z,35.60
2018-03-25T06:16:28.121Z,37.78
2018-03-25T06:18:55.611Z,38.10
2018-03-25T06:21:23.106Z,44.33
2018-03-25T06:23:50.607Z,34.95
2018-03-25T06:26:18.123Z,39.67
2018-03-25T06:28:45.620Z,37.38
2018-03-25T06:31:13.138Z,38.35
2018-03-25T06:33:40.631Z,40.15
2018-03-25T06:36:08.135Z,40.70
2018-03-25T06:38:36.039Z,42.40
2018-03-25T06:41:03.548Z,47.97
2018-03-25T06:43:31.443Z,39.78
2018-03-25T06:45:59.003Z,38.20
2018-03-25T06:48:26.511Z,42.55
2018-03-25T06:50:54.003Z,45.28
2018-03-25T06:53:21.500Z,43.65
2018-03-25T06:55:48.996Z,45.25
2018-03-25T06:58:16.903Z,45.97
2018-03-25T07:00:44.402Z,47.15
2018-03-25T07:03:11.893Z,45.20
2018-03-25T07:05:39.792Z,45.67
2018-03-25T07:08:07.295Z,40.35
2018-03-25T07:10:34.797Z,45.15
2018-03-25T07:13:02.297Z,41.78
2018-03-25T07:15:29.810Z,47.17
2018-03-25T07:17:57.294Z,41.97
2018-03-25T07:20:24.798Z,41.88
2018-03-25T07:22:52.705Z,42.65
2018-03-25T07:25:20.209Z,35.72
2018-03-25T07:27:48.118Z,36.70
2018-03-25T07:30:15.622Z,36.22
2018-03-25T07:32:43.559Z,39.95
2018-03-25T07:35:11.060Z,43.20
2018-03-25T07:37:38.572Z,42.05
2018-03-25T07:40:06.082Z,38.50
2018-03-25T07:42:34.047Z,39.63
2018-03-25T07:45:01.964Z,39.92
2018-03-25T07:47:29.480Z,39.95
2018-03-25T07:49:57.067Z,38.58
2018-03-25T07:52:24.567Z,39.25
2018-03-25T07:54:52.075Z,36.35
2018-03-25T07:57:19.579Z,37.63
2018-03-25T07:59:47.091Z,37.92
2018-03-25T08:02:14.603Z,39.08
2018-03-25T08:04:42.103Z,39.45
2018-03-25T08:07:09.611Z,43.58
2018-03-25T08:09:37.121Z,34.42
2018-03-25T08:12:04.645Z,39.85
2018-03-25T08:14:32.540Z,43.80
2018-03-25T08:17:00.048Z,38.97
2018-03-25T08:19:27.533Z,43.43
2018-03-25T08:21:55.045Z,38.63
2018-03-25T08:24:22.562Z,40.07
2018-03-25T08:26:50.103Z,39.97
2018-03-25T08:29:18.005Z,40.97
2018-03-25T08:31:45.495Z,41.07
2018-03-25T08:34:13.008Z,36.87
2018-03-25T08:36:40.563Z,38.83
2018-03-25T08:39:08.068Z,42.57
2018-03-25T08:41:35.584Z,41.53
2018-03-25T08:44:03.093Z,44.03
2018-03-25T08:46:30.639Z,38.77
2018-03-25T08:48:58.088Z,40.73
2018-03-25T08:51:25.567Z,39.07
2018-03-25T08:53:53.079Z,39.33
2018-03-25T08:56:20.583Z,38.40
2018-03-25T08:58:48.091Z,36.50
2018-03-25T09:01:15.598Z,35.83
2018-03-25T09:03:43.104Z,34.93
2018-03-25T09:06:10.596Z,36.20
2018-03-25T09:08:38.091Z,32.33
2018-03-25T09:11:06.000Z,38.27
2018-03-25T09:13:33.541Z,34.53
2018-03-25T09:16:01.033Z,35.73
2018-03-25T09:18:28.532Z,36.10
2018-03-25T09:20:56.449Z,33.90
2018-03-25T09:23:23.947Z,37.47
2018-03-25T09:25:51.835Z,35.73
2018-03-25T09:28:19.335Z,33.17
2018-03-25T09:30:46.851Z,34.57
2018-03-25T09:33:14.347Z,35.97
2018-03-25T09:35:41.840Z,34.43
2018-03-25T09:38:09.339Z,35.07
2018-03-25T09:40:36.832Z,34.13
2018-03-25T09:43:04.373Z,36.33
2018-03-25T09:45:31.855Z,35.77
2018-03-25T09:47:59.340Z,25.33
2018-03-25T09:50:26.855Z,34.80
2018-03-25T09:52:54.364Z,34.73
2018-03-25T09:55:21.857Z,35.03
2018-03-25T09:57:49.382Z,31.80
2018-03-25T10:00:16.882Z,36.63
2018-03-25T10:02:50.255Z,30.30
2018-03-25T10:05:17.763Z,34.90
2018-03-25T10:07:45.244Z,37.93
2018-03-25T10:10:13.144Z,37.33
2018-03-25T10:12:40.639Z,34.73
2018-03-25T10:15:08.136Z,35.97
2018-03-25T10:17:35.655Z,35.23
2018-03-25T10:20:03.179Z,36.03
2018-03-25T10:22:30.696Z,34.10
2018-03-25T10:24:58.621Z,38.53
2018-03-25T10:27:26.107Z,33.23
2018-03-25T10:29:53.999Z,35.03
2018-03-25T10:32:21.509Z,36.33
2018-03-25T10:34:49.020Z,32.47
2018-03-25T10:37:16.866Z,34.83
2018-03-25T10:39:44.397Z,33.03
2018-03-25T10:42:11.908Z,35.00
2018-03-25T10:44:39.407Z,36.57
2018-03-25T10:47:06.911Z,36.80
2018-03-25T10:49:34.418Z,34.77
2018-03-25T10:52:01.939Z,29.63
2018-03-25T10:54:29.449Z,32.80
2018-03-25T10:56:57.347Z,36.33
2018-03-25T10:59:24.881Z,33.57
2018-03-25T11:04:43.674Z,34.17
2018-03-25T11:07:11.175Z,34.47
2018-03-25T11:09:38.713Z,33.27
2018-03-25T11:12:06.232Z,36.20
2018-03-25T11:14:34.123Z,33.60
2018-03-25T11:17:01.700Z,34.20
2018-03-25T11:19:29.152Z,35.83
2018-03-25T11:21:56.652Z,33.27
2018-03-25T11:24:24.164Z,33.00
2018-03-25T11:26:51.668Z,34.23
2018-03-25T11:29:19.176Z,30.70
2018-03-25T11:31:46.692Z,32.93
2018-03-25T11:34:14.599Z,31.93
2018-03-25T11:36:42.128Z,35.20
2018-03-25T11:39:09.654Z,33.63
2018-03-25T11:41:37.394Z,35.67
2018-03-25T11:44:04.891Z,34.63
2018-03-25T11:46:32.394Z,31.20
2018-03-25T11:48:59.904Z,31.60
2018-03-25T11:51:27.421Z,33.37
2018-03-25T11:53:54.927Z,33.30
2018-03-25T11:56:22.819Z,31.33
2018-03-25T11:58:50.335Z,28.37
2018-03-25T12:01:17.858Z,28.17
2018-03-25T12:03:45.347Z,26.57
2018-03-25T12:06:12.847Z,28.90
2018-03-25T12:08:40.342Z,31.03
2018-03-25T12:11:07.845Z,28.53
2018-03-25T12:13:35.774Z,29.20
2018-03-25T12:16:03.805Z,30.13
2018-03-25T12:18:31.304Z,28.43
2018-03-25T12:20:58.811Z,28.13
2018-03-25T12:23:26.347Z,26.00
2018-03-25T12:25:54.235Z,26.97
2018-03-25T12:28:23.155Z,23.73
2018-03-25T12:30:50.649Z,26.60
2018-03-25T12:33:18.204Z,27.13
2018-03-25T12:35:45.699Z,25.37
2018-03-25T12:38:13.191Z,31.30
2018-03-25T12:40:40.695Z,26.70
2018-03-25T12:43:08.591Z,26.23
2018-03-25T12:45:36.088Z,27.00
2018-03-25T12:48:03.604Z,26.20
2018-03-25T12:50:31.099Z,25.47
2018-03-25T12:52:58.602Z,25.60
2018-03-25T12:55:26.486Z,25.10
2018-03-25T12:57:53.992Z,21.43
2018-03-25T13:00:21.520Z,22.27
2018-03-25T13:02:49.027Z,23.40
2018-03-25T13:05:17.007Z,22.33
2018-03-25T13:07:45.043Z,22.97
2018-03-25T13:10:12.619Z,24.17
2018-03-25T13:12:40.575Z,26.70
2018-03-25T13:15:08.153Z,22.93
2018-03-25T13:17:36.036Z,24.37
2018-03-25T13:20:03.604Z,23.67
2018-03-25T13:22:31.131Z,23.53
2018-03-25T13:24:59.094Z,21.27
2018-03-25T13:27:26.674Z,23.27
2018-03-25T13:29:54.596Z,22.43
2018-03-25T13:32:22.117Z,24.23
2018-03-25T13:34:49.658Z,25.80
2018-03-25T13:37:17.567Z,24.40
2018-03-25T13:39:45.157Z,22.23
2018-03-25T13:42:12.912Z,22.07
2018-03-25T13:44:40.420Z,24.87
2018-03-25T13:47:08.084Z,22.63
2018-03-25T13:49:35.587Z,25.57
2018-03-25T13:52:03.104Z,23.60
2018-03-25T13:54:30.624Z,23.80
2018-03-25T13:56:58.633Z,24.30
2018-03-25T13:59:26.135Z,24.33
2018-03-25T14:01:53.623Z,23.23
2018-03-25T14:04:21.135Z,25.50
2018-03-25T14:06:48.640Z,25.40
2018-03-25T14:09:16.139Z,26.83
2018-03-25T14:11:43.673Z,26.13
2018-03-25T14:14:11.186Z,27.97
2018-03-25T14:16:39.147Z,24.90
2018-03-25T14:19:06.667Z,25.27
2018-03-25T14:21:34.176Z,27.10
2018-03-25T14:24:02.088Z,25.67
2018-03-25T14:26:29.641Z,26.63
2018-03-25T14:28:57.359Z,27.30
2018-03-25T14:31:25.278Z,28.67
2018-03-25T14:33:52.948Z,24.93
2018-03-25T14:36:20.907Z,30.00
2018-03-25T14:38:48.395Z,30.43
2018-03-25T14:41:15.928Z,28.37
2018-03-25T14:43:43.599Z,27.97
2018-03-25T14:46:11.094Z,27.80
2018-03-25T14:48:38.988Z,28.67
2018-03-25T14:51:06.484Z,27.07
2018-03-25T14:53:33.991Z,29.03
2018-03-25T14:56:01.881Z,28.97
2018-03-25T14:58:29.371Z,27.47
2018-03-25T15:00:56.894Z,26.90
2018-03-25T15:03:24.401Z,27.73
2018-03-25T15:05:51.894Z,26.70
2018-03-25T15:08:19.403Z,25.10
2018-03-25T15:10:46.909Z,25.60
2018-03-25T15:13:14.399Z,26.50
2018-03-25T15:15:41.904Z,25.10
2018-03-25T15:18:09.814Z,27.03
2018-03-25T15:20:37.311Z,24.83
2018-03-25T15:23:04.814Z,24.07
2018-03-25T15:25:32.304Z,25.43
2018-03-25T15:27:59.797Z,26.60
2018-03-25T15:30:27.691Z,27.93
2018-03-25T15:32:56.036Z,31.77
2018-03-25T15:35:23.554Z,30.10
2018-03-25T15:37:51.052Z,26.43
2018-03-25T15:40:18.952Z,27.57
2018-03-25T15:42:46.450Z,25.53
2018-03-25T15:45:13.957Z,26.70
2018-03-25T15:47:41.497Z,26.33
2018-03-25T15:50:09.399Z,26.10
2018-03-25T15:52:36.887Z,25.20
2018-03-25T15:55:04.395Z,25.33
2018-03-25T15:57:31.889Z,26.37
2018-03-25T15:59:59.383Z,26.33
2018-03-25T16:02:26.921Z,26.33
2018-03-25T16:04:54.418Z,25.87
2018-03-25T16:07:22.308Z,23.70
2018-03-25T16:09:49.891Z,25.47
2018-03-25T16:12:18.433Z,26.80
2018-03-25T16:14:45.927Z,26.13
2018-03-25T16:17:13.427Z,26.47
2018-03-25T16:19:40.931Z,26.50
2018-03-25T16:22:08.445Z,25.93
2018-03-25T16:27:10.575Z,28.07
2018-03-25T16:29:38.079Z,29.03
2018-03-25T16:32:05.984Z,25.40
2018-03-25T16:34:33.493Z,26.97
2018-03-25T16:37:01.012Z,26.43
2018-03-25T16:39:28.519Z,24.70
2018-03-25T16:41:56.412Z,26.50
2018-03-25T16:44:23.919Z,24.00
2018-03-25T16:46:51.426Z,26.23
2018-03-25T16:49:18.932Z,27.63
2018-03-25T16:51:46.472Z,25.00
2018-03-25T16:54:13.967Z,25.10
2018-03-25T16:56:41.483Z,26.60
2018-03-25T16:59:08.992Z,26.80
2018-03-25T17:01:36.499Z,25.67
2018-03-25T17:04:03.983Z,25.67
2018-03-25T17:06:31.531Z,24.97
2018-03-25T17:08:59.020Z,25.43
2018-03-25T17:11:26.906Z,23.93
2018-03-25T17:13:54.411Z,26.93
2018-03-25T17:16:21.923Z,23.77
2018-03-25T17:18:49.436Z,26.73
2018-03-25T17:21:16.970Z,24.73
2018-03-25T17:23:44.464Z,25.67
2018-03-25T17:26:11.957Z,26.07
2018-03-25T17:28:39.455Z,25.60
2018-03-25T17:31:06.953Z,24.60
2018-03-25T17:33:34.849Z,24.27
2018-03-25T17:36:02.369Z,26.67
2018-03-25T17:38:30.268Z,26.13
2018-03-25T17:40:57.951Z,25.10
2018-03-25T17:43:25.612Z,444.60
2018-03-25T17:45:53.239Z,657.67
2018-03-25T17:48:20.762Z,688.40
2018-03-25T17:50:48.267Z,156.73
2018-03-25T17:53:15.793Z,42.23
2018-03-25T17:55:43.805Z,30.13
2018-03-25T17:58:11.302Z,35.93
2018-03-25T18:00:39.491Z,32.00
2018-03-25T18:03:07.479Z,34.83
2018-03-25T18:05:35.072Z,31.50
2018-03-25T18:08:02.693Z,28.10
2018-03-25T18:10:30.196Z,26.93
2018-03-25T18:12:57.762Z,30.83
2018-03-25T18:15:25.381Z,29.47
2018-03-25T18:17:52.883Z,33.47
2018-03-25T18:20:20.384Z,32.27
2018-03-25T18:22:48.307Z,30.23
2018-03-25T18:25:15.807Z,35.17
2018-03-25T18:27:43.393Z,35.00
2018-03-25T18:30:12.019Z,29.03
2018-03-25T18:32:39.523Z,30.27
2018-03-25T18:35:07.076Z,31.07
2018-03-25T18:37:34.574Z,30.73
2018-03-25T18:40:02.205Z,33.70
2018-03-25T18:42:29.727Z,32.70
2018-03-25T18:44:57.249Z,31.00
2018-03-25T18:47:24.871Z,32.20
2018-03-25T18:49:52.648Z,31.50
2018-03-25T18:52:20.297Z,33.23
2018-03-25T18:54:47.791Z,36.53
2018-03-25T18:57:15.581Z,34.53
2018-03-25T18:59:43.728Z,32.20
2018-03-25T19:02:11.293Z,36.37
2018-03-25T19:04:38.972Z,34.73
2018-03-25T19:07:06.875Z,34.40
2018-03-25T19:09:34.375Z,34.20
2018-03-25T19:12:01.875Z,35.97
2018-03-25T19:14:29.772Z,34.93
2018-03-25T19:16:57.674Z,36.90
2018-03-25T19:19:25.195Z,34.40
2018-03-25T19:21:52.688Z,36.97
2018-03-25T19:24:20.191Z,34.20
2018-03-25T19:26:47.723Z,34.70
2018-03-25T19:29:15.612Z,37.17
2018-03-25T19:31:44.039Z,38.97
2018-03-25T19:34:11.545Z,33.37
2018-03-25T19:36:39.091Z,35.37
2018-03-25T19:39:06.981Z,31.73
2018-03-25T19:41:34.491Z,29.57
2018-03-25T19:44:01.987Z,30.93
2018-03-25T19:46:29.504Z,33.73
2018-03-25T19:48:57.011Z,29.83
2018-03-25T19:51:24.495Z,37.10
2018-03-25T19:53:52.012Z,32.87
2018-03-25T19:56:19.507Z,34.50
2018-03-25T19:58:46.991Z,39.73
2018-03-25T20:01:14.491Z,35.83
2018-03-25T20:03:42.078Z,33.03
2018-03-25T20:06:09.957Z,39.47
2018-03-25T20:08:37.447Z,39.77
2018-03-25T20:11:05.331Z,38.40
2018-03-25T20:13:32.853Z,37.93
2018-03-25T20:16:00.368Z,37.40
2018-03-25T20:18:27.868Z,36.70
2018-03-25T20:20:55.371Z,35.80
2018-03-25T20:23:22.864Z,34.10
2018-03-25T20:25:50.367Z,35.73
2018-03-25T20:28:18.272Z,36.67
2018-03-25T20:30:45.771Z,37.83
2018-03-25T20:33:13.267Z,38.17
2018-03-25T20:35:40.762Z,39.17
2018-03-25T20:38:08.327Z,37.57
2018-03-25T20:40:35.822Z,39.63
2018-03-25T20:43:03.716Z,39.03
2018-03-25T20:45:31.204Z,36.97
2018-03-25T20:47:58.704Z,37.57
2018-03-25T20:50:26.591Z,41.23
2018-03-25T20:52:54.100Z,37.93
2018-03-25T20:55:21.595Z,35.10
2018-03-25T20:57:49.107Z,37.17
2018-03-25T21:00:17.031Z,34.30
2018-03-25T21:02:44.567Z,37.53
2018-03-25T21:05:12.489Z,38.60
2018-03-25T21:07:40.149Z,36.60
2018-03-25T21:10:07.823Z,35.60
2018-03-25T21:12:35.327Z,37.40
2018-03-25T21:15:02.928Z,39.53
2018-03-25T21:17:30.512Z,38.47
2018-03-25T21:19:58.132Z,37.33
2018-03-25T21:22:26.304Z,38.03
2018-03-25T21:24:53.911Z,39.57
2018-03-25T21:27:21.839Z,39.30
2018-03-25T21:29:49.569Z,39.00
2018-03-25T21:32:17.083Z,37.43
2018-03-25T21:34:44.756Z,40.17
2018-03-25T21:37:12.352Z,37.33
2018-03-25T21:39:39.847Z,38.57
2018-03-25T21:42:07.359Z,38.50
2018-03-25T21:44:34.963Z,38.30
2018-03-25T21:47:02.459Z,38.87
2018-03-25T21:49:30.491Z,34.97
2018-03-25T21:51:58.093Z,38.80
2018-03-25T21:54:25.758Z,35.20
2018-03-25T21:56:53.338Z,37.27
2018-03-25T21:59:21.004Z,37.63
2018-03-25T22:01:48.600Z,39.70
2018-03-25T22:04:16.159Z,40.43
2018-03-25T22:06:43.668Z,38.07
2018-03-25T22:09:11.171Z,39.93
2018-03-25T22:11:38.674Z,37.60
2018-03-25T22:14:06.188Z,41.90
2018-03-25T22:16:33.689Z,40.77
2018-03-25T22:19:01.209Z,38.93
2018-03-25T22:21:28.702Z,41.90
2018-03-25T22:23:56.608Z,41.00
2018-03-25T22:26:24.108Z,40.93
2018-03-25T22:28:51.601Z,39.93
2018-03-25T22:31:19.113Z,38.33
2018-03-25T22:33:46.603Z,41.70
2018-03-25T22:36:14.107Z,40.17
2018-03-25T22:38:41.654Z,39.13
2018-03-25T22:41:09.135Z,39.30
2018-03-25T22:43:36.642Z,35.87
2018-03-25T22:46:04.165Z,37.37
2018-03-25T22:48:31.751Z,39.73
2018-03-25T22:50:59.267Z,42.10
2018-03-25T22:53:26.771Z,37.87
2018-03-25T22:55:54.278Z,37.47
2018-03-25T22:58:21.792Z,39.67
2018-03-25T23:00:49.296Z,42.83
2018-03-25T23:03:16.815Z,38.47
2018-03-25T23:05:44.311Z,39.67
2018-03-25T23:08:11.824Z,38.43
2018-03-25T23:10:39.339Z,39.90
2018-03-25T23:13:06.827Z,38.97
2018-03-25T23:15:34.343Z,36.90
2018-03-25T23:18:01.859Z,38.80
2018-03-25T23:20:29.362Z,40.10
2018-03-25T23:22:56.882Z,40.23
2018-03-25T23:25:24.378Z,34.77
2018-03-25T23:27:51.895Z,36.20
2018-03-25T23:30:19.399Z,35.90
2018-03-25T23:32:46.899Z,41.00
2018-03-25T23:35:14.394Z,37.53
2018-03-25T23:37:41.891Z,38.80
2018-03-25T23:40:09.394Z,38.57
2018-03-25T23:42:36.910Z,39.33
2018-03-25T23:45:04.439Z,38.10
2018-03-25T23:47:31.950Z,41.83
2018-03-25T23:49:59.487Z,37.87
2018-03-25T23:52:26.988Z,36.73
2018-03-25T23:54:54.495Z,41.37
2018-03-25T23:57:22.003Z,42.67
2018-03-25T23:59:49.533Z,38.80
